LFSG/EPL METAR and TAF weather

Enter ICAO airport designator
Station Type Date Time Source
LFSG METAR 2018/12/12 07:00 UTC NOAA

LFSG 120700Z AUTO VRB02KT 0450 R26/0550N FZFG VV/// M04/M05 Q1023


Station Type Date Time Source
LFSG Decoded METAR 2018/12/12 07:00 UTC NOAA

Station name not available
Dec 12, 2018 - 02:00 AM EST / 2018.12.12 0700 UTC
Wind: Variable at 2 MPH (2 KT):0
Visibility: less than 1 mile:0
Sky conditions: obscured
Weather: freezing fog
Temperature: 24 F (-4 C)
Dew Point: 23 F (-5 C)
Relative Humidity: 92%
Pressure (altimeter): 30.21 in. Hg (1023 hPa)
ob: LFSG 120700Z AUTO VRB02KT 0450 R26/0550N FZFG VV/// M04/M05 Q1023
cycle: 7

Station Type Date Time Source
LFSG TAF UTC NOAA

Error!


Example: see airport list